sensor_id;sensor_type;location;lat;lon;timestamp;P1;durP1;ratioP1;P2;durP2;ratioP2
5303;SDS011;2674;49.722;10.892;2022-11-04T00:01:45;22.53;;;14.80;;
5303;SDS011;2674;49.722;10.892;2022-11-04T00:04:13;23.50;;;14.27;;
5303;SDS011;2674;49.722;10.892;2022-11-04T00:06:41;21.73;;;14.03;;
5303;SDS011;2674;49.722;10.892;2022-11-04T00:09:08;28.07;;;15.20;;
5303;SDS011;2674;49.722;10.892;2022-11-04T00:11:35;20.47;;;14.60;;
5303;SDS011;2674;49.722;10.892;2022-11-04T00:14:20;22.63;;;14.10;;
5303;SDS011;2674;49.722;10.892;2022-11-04T00:16:46;25.13;;;15.40;;
5303;SDS011;2674;49.722;10.892;2022-11-04T00:19:30;23.27;;;14.20;;
5303;SDS011;2674;49.722;10.892;2022-11-04T00:22:15;26.90;;;14.10;;
5303;SDS011;2674;49.722;10.892;2022-11-04T00:24:59;21.83;;;15.30;;
5303;SDS011;2674;49.722;10.892;2022-11-04T00:27:47;19.10;;;13.30;;
5303;SDS011;2674;49.722;10.892;2022-11-04T00:30:31;15.60;;;11.47;;
5303;SDS011;2674;49.722;10.892;2022-11-04T00:32:57;16.90;;;12.73;;
5303;SDS011;2674;49.722;10.892;2022-11-04T00:35:49;18.73;;;12.90;;
5303;SDS011;2674;49.722;10.892;2022-11-04T00:38:16;19.20;;;12.70;;
5303;SDS011;2674;49.722;10.892;2022-11-04T00:40:42;22.93;;;12.47;;
5303;SDS011;2674;49.722;10.892;2022-11-04T00:43:09;19.80;;;12.70;;
5303;SDS011;2674;49.722;10.892;2022-11-04T00:45:35;23.90;;;12.97;;
5303;SDS011;2674;49.722;10.892;2022-11-04T00:48:01;18.37;;;12.10;;
5303;SDS011;2674;49.722;10.892;2022-11-04T00:50:27;24.03;;;13.70;;
5303;SDS011;2674;49.722;10.892;2022-11-04T00:52:57;21.03;;;12.53;;
5303;SDS011;2674;49.722;10.892;2022-11-04T00:55:26;15.40;;;11.50;;
5303;SDS011;2674;49.722;10.892;2022-11-04T00:57:52;20.00;;;12.10;;
5303;SDS011;2674;49.722;10.892;2022-11-04T01:00:19;20.17;;;11.90;;
5303;SDS011;2674;49.722;10.892;2022-11-04T01:02:45;16.27;;;10.97;;
5303;SDS011;2674;49.722;10.892;2022-11-04T01:05:11;18.50;;;10.20;;
5303;SDS011;2674;49.722;10.892;2022-11-04T01:07:37;15.33;;;9.60;;
5303;SDS011;2674;49.722;10.892;2022-11-04T01:10:04;13.57;;;9.90;;
5303;SDS011;2674;49.722;10.892;2022-11-04T01:12:30;12.47;;;8.40;;
5303;SDS011;2674;49.722;10.892;2022-11-04T01:14:56;13.27;;;9.10;;
5303;SDS011;2674;49.722;10.892;2022-11-04T01:17:22;9.33;;;7.53;;
5303;SDS011;2674;49.722;10.892;2022-11-04T01:19:48;10.23;;;7.60;;
5303;SDS011;2674;49.722;10.892;2022-11-04T01:22:14;7.90;;;6.60;;
5303;SDS011;2674;49.722;10.892;2022-11-04T01:24:40;10.10;;;7.33;;
5303;SDS011;2674;49.722;10.892;2022-11-04T01:27:06;9.83;;;7.23;;
5303;SDS011;2674;49.722;10.892;2022-11-04T01:29:32;9.70;;;7.30;;
5303;SDS011;2674;49.722;10.892;2022-11-04T01:31:58;8.93;;;6.70;;
5303;SDS011;2674;49.722;10.892;2022-11-04T01:34:24;11.67;;;7.80;;
5303;SDS011;2674;49.722;10.892;2022-11-04T01:36:50;10.73;;;7.13;;
5303;SDS011;2674;49.722;10.892;2022-11-04T01:39:15;8.93;;;7.30;;
5303;SDS011;2674;49.722;10.892;2022-11-04T01:41:41;9.63;;;7.00;;
5303;SDS011;2674;49.722;10.892;2022-11-04T01:47:35;7.97;;;5.93;;
5303;SDS011;2674;49.722;10.892;2022-11-04T01:50:12;6.90;;;6.20;;
5303;SDS011;2674;49.722;10.892;2022-11-04T01:55:15;7.70;;;5.43;;
5303;SDS011;2674;49.722;10.892;2022-11-04T01:57:54;6.63;;;5.57;;
5303;SDS011;2674;49.722;10.892;2022-11-04T02:00:24;10.90;;;5.60;;
5303;SDS011;2674;49.722;10.892;2022-11-04T02:03:24;8.03;;;5.03;;
5303;SDS011;2674;49.722;10.892;2022-11-04T02:05:47;8.23;;;5.03;;
5303;SDS011;2674;49.722;10.892;2022-11-04T02:08:14;6.20;;;4.93;;
5303;SDS011;2674;49.722;10.892;2022-11-04T02:10:45;7.37;;;4.50;;
5303;SDS011;2674;49.722;10.892;2022-11-04T02:13:18;4.20;;;3.90;;
5303;SDS011;2674;49.722;10.892;2022-11-04T02:15:51;6.80;;;4.70;;
5303;SDS011;2674;49.722;10.892;2022-11-04T02:21:37;5.67;;;4.30;;
5303;SDS011;2674;49.722;10.892;2022-11-04T02:24:13;5.00;;;4.43;;
5303;SDS011;2674;49.722;10.892;2022-11-04T02:27:17;5.20;;;4.63;;
5303;SDS011;2674;49.722;10.892;2022-11-04T02:32:59;7.43;;;3.20;;
5303;SDS011;2674;49.722;10.892;2022-11-04T02:38:29;4.07;;;2.60;;
5303;SDS011;2674;49.722;10.892;2022-11-04T02:41:08;4.33;;;2.67;;
5303;SDS011;2674;49.722;10.892;2022-11-04T02:44:11;3.83;;;2.77;;
5303;SDS011;2674;49.722;10.892;2022-11-04T02:46:58;2.63;;;2.43;;
5303;SDS011;2674;49.722;10.892;2022-11-04T02:52:29;4.43;;;3.10;;
5303;SDS011;2674;49.722;10.892;2022-11-04T02:55:06;3.77;;;2.33;;
5303;SDS011;2674;49.722;10.892;2022-11-04T02:57:42;2.63;;;2.53;;
5303;SDS011;2674;49.722;10.892;2022-11-04T03:00:11;2.40;;;2.20;;
5303;SDS011;2674;49.722;10.892;2022-11-04T03:05:07;2.43;;;2.23;;
5303;SDS011;2674;49.722;10.892;2022-11-04T03:07:37;2.20;;;2.10;;
5303;SDS011;2674;49.722;10.892;2022-11-04T03:10:07;3.10;;;2.30;;
5303;SDS011;2674;49.722;10.892;2022-11-04T03:12:57;2.40;;;2.30;;
5303;SDS011;2674;49.722;10.892;2022-11-04T03:15:39;2.00;;;1.90;;
5303;SDS011;2674;49.722;10.892;2022-11-04T03:18:15;2.10;;;2.00;;
5303;SDS011;2674;49.722;10.892;2022-11-04T03:20:42;4.63;;;2.10;;
5303;SDS011;2674;49.722;10.892;2022-11-04T03:23:11;4.50;;;2.30;;
5303;SDS011;2674;49.722;10.892;2022-11-04T03:25:43;3.20;;;2.30;;
5303;SDS011;2674;49.722;10.892;2022-11-04T03:31:10;5.80;;;2.30;;
5303;SDS011;2674;49.722;10.892;2022-11-04T03:33:48;6.50;;;2.50;;
5303;SDS011;2674;49.722;10.892;2022-11-04T03:36:15;2.10;;;2.00;;
5303;SDS011;2674;49.722;10.892;2022-11-04T03:38:43;2.33;;;2.17;;
5303;SDS011;2674;49.722;10.892;2022-11-04T03:41:11;1.77;;;1.67;;
5303;SDS011;2674;49.722;10.892;2022-11-04T03:43:41;2.23;;;2.10;;
5303;SDS011;2674;49.722;10.892;2022-11-04T03:46:07;2.67;;;2.47;;
5303;SDS011;2674;49.722;10.892;2022-11-04T03:48:34;1.90;;;1.80;;
5303;SDS011;2674;49.722;10.892;2022-11-04T03:51:00;3.67;;;2.30;;
5303;SDS011;2674;49.722;10.892;2022-11-04T03:53:26;2.40;;;2.20;;
5303;SDS011;2674;49.722;10.892;2022-11-04T04:07:04;4.30;;;2.10;;
5303;SDS011;2674;49.722;10.892;2022-11-04T04:09:41;2.20;;;2.10;;
5303;SDS011;2674;49.722;10.892;2022-11-04T04:12:22;2.07;;;1.97;;
5303;SDS011;2674;49.722;10.892;2022-11-04T04:15:00;2.20;;;2.10;;
5303;SDS011;2674;49.722;10.892;2022-11-04T04:20:03;3.00;;;2.10;;
5303;SDS011;2674;49.722;10.892;2022-11-04T04:22:42;2.37;;;2.27;;
5303;SDS011;2674;49.722;10.892;2022-11-04T04:25:22;2.00;;;1.70;;
5303;SDS011;2674;49.722;10.892;2022-11-04T04:28:12;2.03;;;1.93;;
5303;SDS011;2674;49.722;10.892;2022-11-04T04:30:41;1.90;;;1.80;;
5303;SDS011;2674;49.722;10.892;2022-11-04T04:33:08;2.30;;;1.83;;
5303;SDS011;2674;49.722;10.892;2022-11-04T04:35:41;2.50;;;2.30;;
5303;SDS011;2674;49.722;10.892;2022-11-04T04:38:21;1.97;;;1.87;;
5303;SDS011;2674;49.722;10.892;2022-11-04T04:41:09;2.10;;;1.70;;
5303;SDS011;2674;49.722;10.892;2022-11-04T04:44:10;1.97;;;1.87;;
5303;SDS011;2674;49.722;10.892;2022-11-04T04:46:59;3.47;;;2.37;;
5303;SDS011;2674;49.722;10.892;2022-11-04T04:49:26;2.30;;;1.63;;
5303;SDS011;2674;49.722;10.892;2022-11-04T04:51:59;1.80;;;1.70;;
5303;SDS011;2674;49.722;10.892;2022-11-04T04:54:26;2.70;;;1.70;;
5303;SDS011;2674;49.722;10.892;2022-11-04T04:56:52;2.20;;;2.10;;
5303;SDS011;2674;49.722;10.892;2022-11-04T04:59:18;2.27;;;2.17;;
5303;SDS011;2674;49.722;10.892;2022-11-04T05:01:44;2.57;;;2.40;;
5303;SDS011;2674;49.722;10.892;2022-11-04T05:04:10;3.30;;;2.40;;
5303;SDS011;2674;49.722;10.892;2022-11-04T05:06:36;2.97;;;2.30;;
5303;SDS011;2674;49.722;10.892;2022-11-04T05:09:02;2.53;;;2.33;;
5303;SDS011;2674;49.722;10.892;2022-11-04T05:11:28;2.93;;;2.17;;
5303;SDS011;2674;49.722;10.892;2022-11-04T05:13:54;2.00;;;1.90;;
5303;SDS011;2674;49.722;10.892;2022-11-04T05:16:20;2.10;;;2.00;;
5303;SDS011;2674;49.722;10.892;2022-11-04T05:18:46;2.10;;;2.00;;
5303;SDS011;2674;49.722;10.892;2022-11-04T05:21:13;2.10;;;1.90;;
5303;SDS011;2674;49.722;10.892;2022-11-04T05:23:40;2.13;;;2.03;;
5303;SDS011;2674;49.722;10.892;2022-11-04T05:26:06;2.37;;;2.20;;
5303;SDS011;2674;49.722;10.892;2022-11-04T05:28:31;1.37;;;1.30;;
5303;SDS011;2674;49.722;10.892;2022-11-04T05:31:01;1.73;;;1.63;;
5303;SDS011;2674;49.722;10.892;2022-11-04T05:33:28;1.70;;;1.60;;
5303;SDS011;2674;49.722;10.892;2022-11-04T05:35:54;2.30;;;2.10;;
5303;SDS011;2674;49.722;10.892;2022-11-04T05:38:20;2.00;;;1.90;;
5303;SDS011;2674;49.722;10.892;2022-11-04T05:40:45;4.03;;;2.90;;
5303;SDS011;2674;49.722;10.892;2022-11-04T05:43:11;2.30;;;2.10;;
5303;SDS011;2674;49.722;10.892;2022-11-04T05:45:37;2.00;;;1.90;;
5303;SDS011;2674;49.722;10.892;2022-11-04T05:48:03;2.37;;;2.27;;
5303;SDS011;2674;49.722;10.892;2022-11-04T05:50:31;1.70;;;1.60;;
5303;SDS011;2674;49.722;10.892;2022-11-04T05:52:57;2.60;;;2.10;;
5303;SDS011;2674;49.722;10.892;2022-11-04T05:55:24;2.40;;;2.00;;
5303;SDS011;2674;49.722;10.892;2022-11-04T05:57:51;6.50;;;2.60;;
5303;SDS011;2674;49.722;10.892;2022-11-04T06:00:18;3.33;;;2.60;;
5303;SDS011;2674;49.722;10.892;2022-11-04T06:02:44;3.83;;;2.10;;
5303;SDS011;2674;49.722;10.892;2022-11-04T06:05:10;6.20;;;2.30;;
5303;SDS011;2674;49.722;10.892;2022-11-04T06:07:36;4.23;;;3.00;;
5303;SDS011;2674;49.722;10.892;2022-11-04T06:10:02;5.77;;;2.50;;
5303;SDS011;2674;49.722;10.892;2022-11-04T06:12:29;2.93;;;2.27;;
5303;SDS011;2674;49.722;10.892;2022-11-04T06:14:54;2.50;;;1.97;;
5303;SDS011;2674;49.722;10.892;2022-11-04T06:17:21;2.37;;;2.17;;
5303;SDS011;2674;49.722;10.892;2022-11-04T06:19:47;2.37;;;2.17;;
5303;SDS011;2674;49.722;10.892;2022-11-04T06:22:14;3.73;;;2.40;;
5303;SDS011;2674;49.722;10.892;2022-11-04T06:24:41;2.50;;;2.30;;
5303;SDS011;2674;49.722;10.892;2022-11-04T06:27:07;3.00;;;2.40;;
5303;SDS011;2674;49.722;10.892;2022-11-04T06:29:34;5.27;;;2.63;;
5303;SDS011;2674;49.722;10.892;2022-11-04T06:32:07;3.93;;;2.43;;
5303;SDS011;2674;49.722;10.892;2022-11-04T06:34:35;2.37;;;2.20;;
5303;SDS011;2674;49.722;10.892;2022-11-04T06:37:01;1.90;;;1.80;;
5303;SDS011;2674;49.722;10.892;2022-11-04T06:39:27;2.53;;;2.33;;
5303;SDS011;2674;49.722;10.892;2022-11-04T06:41:53;2.27;;;2.00;;
5303;SDS011;2674;49.722;10.892;2022-11-04T06:44:19;5.20;;;2.93;;
5303;SDS011;2674;49.722;10.892;2022-11-04T06:46:45;2.97;;;1.87;;
5303;SDS011;2674;49.722;10.892;2022-11-04T06:49:15;3.30;;;2.67;;
5303;SDS011;2674;49.722;10.892;2022-11-04T06:51:42;4.70;;;2.10;;
5303;SDS011;2674;49.722;10.892;2022-11-04T06:54:08;2.23;;;2.13;;
5303;SDS011;2674;49.722;10.892;2022-11-04T06:56:35;3.63;;;2.00;;
5303;SDS011;2674;49.722;10.892;2022-11-04T06:59:01;3.00;;;2.00;;
5303;SDS011;2674;49.722;10.892;2022-11-04T07:01:28;3.23;;;2.00;;
5303;SDS011;2674;49.722;10.892;2022-11-04T07:03:56;2.20;;;1.60;;
5303;SDS011;2674;49.722;10.892;2022-11-04T07:06:23;2.80;;;2.13;;
5303;SDS011;2674;49.722;10.892;2022-11-04T07:08:50;4.27;;;2.60;;
5303;SDS011;2674;49.722;10.892;2022-11-04T07:11:18;2.30;;;2.10;;
5303;SDS011;2674;49.722;10.892;2022-11-04T07:13:46;2.00;;;1.90;;
5303;SDS011;2674;49.722;10.892;2022-11-04T07:16:13;3.37;;;1.77;;
5303;SDS011;2674;49.722;10.892;2022-11-04T07:18:39;1.87;;;1.70;;
5303;SDS011;2674;49.722;10.892;2022-11-04T07:21:06;1.87;;;1.70;;
5303;SDS011;2674;49.722;10.892;2022-11-04T07:23:32;1.73;;;1.60;;
5303;SDS011;2674;49.722;10.892;2022-11-04T07:25:59;1.60;;;1.50;;
5303;SDS011;2674;49.722;10.892;2022-11-04T07:28:29;6.07;;;2.03;;
5303;SDS011;2674;49.722;10.892;2022-11-04T07:30:55;3.57;;;2.30;;
5303;SDS011;2674;49.722;10.892;2022-11-04T07:33:23;3.00;;;1.80;;
5303;SDS011;2674;49.722;10.892;2022-11-04T07:35:49;3.93;;;1.90;;
5303;SDS011;2674;49.722;10.892;2022-11-04T07:38:15;1.60;;;1.50;;
5303;SDS011;2674;49.722;10.892;2022-11-04T07:40:41;1.73;;;1.63;;
5303;SDS011;2674;49.722;10.892;2022-11-04T07:43:06;3.90;;;1.83;;
5303;SDS011;2674;49.722;10.892;2022-11-04T07:45:32;7.30;;;2.00;;
5303;SDS011;2674;49.722;10.892;2022-11-04T07:47:59;5.97;;;2.60;;
5303;SDS011;2674;49.722;10.892;2022-11-04T07:50:24;8.40;;;2.90;;
5303;SDS011;2674;49.722;10.892;2022-11-04T07:52:50;6.80;;;3.30;;
5303;SDS011;2674;49.722;10.892;2022-11-04T07:55:16;9.60;;;5.83;;
5303;SDS011;2674;49.722;10.892;2022-11-04T07:57:46;11.73;;;5.70;;
5303;SDS011;2674;49.722;10.892;2022-11-04T08:00:13;15.40;;;8.40;;
5303;SDS011;2674;49.722;10.892;2022-11-04T08:02:43;12.20;;;6.20;;
5303;SDS011;2674;49.722;10.892;2022-11-04T08:05:12;11.30;;;5.45;;
5303;SDS011;2674;49.722;10.892;2022-11-04T08:07:38;8.47;;;5.30;;
5303;SDS011;2674;49.722;10.892;2022-11-04T08:10:05;4.30;;;3.00;;
5303;SDS011;2674;49.722;10.892;2022-11-04T08:12:31;6.20;;;3.80;;
5303;SDS011;2674;49.722;10.892;2022-11-04T08:14:58;3.40;;;2.67;;
5303;SDS011;2674;49.722;10.892;2022-11-04T08:17:24;3.13;;;2.70;;
5303;SDS011;2674;49.722;10.892;2022-11-04T08:19:51;10.07;;;2.50;;
5303;SDS011;2674;49.722;10.892;2022-11-04T08:22:17;6.47;;;2.73;;
5303;SDS011;2674;49.722;10.892;2022-11-04T08:24:43;2.93;;;2.70;;
5303;SDS011;2674;49.722;10.892;2022-11-04T08:27:11;3.50;;;3.20;;
5303;SDS011;2674;49.722;10.892;2022-11-04T08:29:37;9.83;;;7.47;;
5303;SDS011;2674;49.722;10.892;2022-11-04T08:32:04;6.93;;;6.47;;
5303;SDS011;2674;49.722;10.892;2022-11-04T08:34:32;17.27;;;15.53;;
5303;SDS011;2674;49.722;10.892;2022-11-04T08:36:58;10.40;;;9.30;;
5303;SDS011;2674;49.722;10.892;2022-11-04T08:39:24;36.47;;;32.53;;
5303;SDS011;2674;49.722;10.892;2022-11-04T08:41:50;12.63;;;11.53;;
5303;SDS011;2674;49.722;10.892;2022-11-04T08:44:17;18.27;;;16.47;;
5303;SDS011;2674;49.722;10.892;2022-11-04T08:46:45;11.13;;;9.40;;
5303;SDS011;2674;49.722;10.892;2022-11-04T08:49:11;7.20;;;6.60;;
5303;SDS011;2674;49.722;10.892;2022-11-04T08:51:38;13.80;;;12.40;;
5303;SDS011;2674;49.722;10.892;2022-11-04T08:54:06;10.23;;;7.80;;
5303;SDS011;2674;49.722;10.892;2022-11-04T08:56:36;6.53;;;5.20;;
5303;SDS011;2674;49.722;10.892;2022-11-04T08:59:03;9.47;;;6.50;;
5303;SDS011;2674;49.722;10.892;2022-11-04T09:01:31;7.80;;;5.70;;
5303;SDS011;2674;49.722;10.892;2022-11-04T09:03:58;14.57;;;6.20;;
5303;SDS011;2674;49.722;10.892;2022-11-04T09:06:26;12.57;;;7.80;;
5303;SDS011;2674;49.722;10.892;2022-11-04T09:08:58;14.60;;;11.70;;
5303;SDS011;2674;49.722;10.892;2022-11-04T09:11:32;17.70;;;11.87;;
5303;SDS011;2674;49.722;10.892;2022-11-04T09:14:01;11.77;;;6.80;;
5303;SDS011;2674;49.722;10.892;2022-11-04T09:16:28;11.73;;;7.30;;
5303;SDS011;2674;49.722;10.892;2022-11-04T09:18:55;7.47;;;5.00;;
5303;SDS011;2674;49.722;10.892;2022-11-04T09:21:22;7.93;;;4.40;;
5303;SDS011;2674;49.722;10.892;2022-11-04T09:23:49;6.63;;;4.03;;
5303;SDS011;2674;49.722;10.892;2022-11-04T09:26:15;13.63;;;5.83;;
5303;SDS011;2674;49.722;10.892;2022-11-04T09:28:42;9.00;;;6.23;;
5303;SDS011;2674;49.722;10.892;2022-11-04T09:31:12;3.87;;;2.63;;
5303;SDS011;2674;49.722;10.892;2022-11-04T09:33:39;8.90;;;4.30;;
5303;SDS011;2674;49.722;10.892;2022-11-04T09:36:05;9.10;;;5.10;;
5303;SDS011;2674;49.722;10.892;2022-11-04T09:38:33;12.00;;;6.13;;
5303;SDS011;2674;49.722;10.892;2022-11-04T09:41:00;19.97;;;9.30;;
5303;SDS011;2674;49.722;10.892;2022-11-04T09:46:04;6.13;;;3.07;;
5303;SDS011;2674;49.722;10.892;2022-11-04T09:48:31;8.50;;;3.33;;
5303;SDS011;2674;49.722;10.892;2022-11-04T09:51:02;3.07;;;2.73;;
5303;SDS011;2674;49.722;10.892;2022-11-04T09:53:36;7.20;;;3.10;;
5303;SDS011;2674;49.722;10.892;2022-11-04T09:58:39;5.23;;;3.10;;
5303;SDS011;2674;49.722;10.892;2022-11-04T10:07:09;9.93;;;5.00;;
5303;SDS011;2674;49.722;10.892;2022-11-04T10:24:18;7.00;;;4.20;;
5303;SDS011;2674;49.722;10.892;2022-11-04T10:26:50;15.37;;;3.87;;
5303;SDS011;2674;49.722;10.892;2022-11-04T10:29:32;5.80;;;4.03;;
5303;SDS011;2674;49.722;10.892;2022-11-04T10:32:03;4.27;;;3.87;;
5303;SDS011;2674;49.722;10.892;2022-11-04T10:34:46;4.50;;;2.97;;
5303;SDS011;2674;49.722;10.892;2022-11-04T10:37:26;7.60;;;3.67;;
5303;SDS011;2674;49.722;10.892;2022-11-04T10:40:28;6.10;;;3.40;;
5303;SDS011;2674;49.722;10.892;2022-11-04T10:43:07;6.23;;;2.70;;
5303;SDS011;2674;49.722;10.892;2022-11-04T10:48:44;4.90;;;4.00;;
5303;SDS011;2674;49.722;10.892;2022-11-04T10:51:19;6.90;;;3.77;;
5303;SDS011;2674;49.722;10.892;2022-11-04T10:53:47;12.47;;;3.67;;
5303;SDS011;2674;49.722;10.892;2022-11-04T10:57:12;2.60;;;2.40;;
5303;SDS011;2674;49.722;10.892;2022-11-04T11:08:27;8.33;;;3.00;;
5303;SDS011;2674;49.722;10.892;2022-11-04T11:10:55;6.20;;;2.43;;
5303;SDS011;2674;49.722;10.892;2022-11-04T11:13:25;4.03;;;2.60;;
5303;SDS011;2674;49.722;10.892;2022-11-04T11:16:06;3.37;;;2.70;;
5303;SDS011;2674;49.722;10.892;2022-11-04T11:18:36;5.40;;;2.23;;
5303;SDS011;2674;49.722;10.892;2022-11-04T11:23:37;4.13;;;2.00;;
5303;SDS011;2674;49.722;10.892;2022-11-04T11:26:15;2.77;;;1.80;;
5303;SDS011;2674;49.722;10.892;2022-11-04T11:28:47;5.70;;;2.80;;
5303;SDS011;2674;49.722;10.892;2022-11-04T11:31:20;4.03;;;2.53;;
5303;SDS011;2674;49.722;10.892;2022-11-04T11:34:01;5.23;;;2.90;;
5303;SDS011;2674;49.722;10.892;2022-11-04T11:36:38;17.83;;;2.17;;
5303;SDS011;2674;49.722;10.892;2022-11-04T11:47:04;4.83;;;2.80;;
5303;SDS011;2674;49.722;10.892;2022-11-04T11:49:32;5.33;;;2.50;;
5303;SDS011;2674;49.722;10.892;2022-11-04T12:00:31;5.10;;;1.60;;
5303;SDS011;2674;49.722;10.892;2022-11-04T12:03:20;3.53;;;2.30;;
5303;SDS011;2674;49.722;10.892;2022-11-04T12:11:27;2.93;;;1.80;;
5303;SDS011;2674;49.722;10.892;2022-11-04T12:18:09;4.50;;;1.40;;
5303;SDS011;2674;49.722;10.892;2022-11-04T12:23:36;10.03;;;1.70;;
5303;SDS011;2674;49.722;10.892;2022-11-04T12:26:10;2.10;;;1.30;;
5303;SDS011;2674;49.722;10.892;2022-11-04T12:32:11;4.20;;;1.60;;
5303;SDS011;2674;49.722;10.892;2022-11-04T12:38:08;4.73;;;1.57;;
5303;SDS011;2674;49.722;10.892;2022-11-04T12:57:44;3.73;;;1.80;;
5303;SDS011;2674;49.722;10.892;2022-11-04T13:00:18;4.33;;;1.83;;
5303;SDS011;2674;49.722;10.892;2022-11-04T13:02:51;3.43;;;1.80;;
5303;SDS011;2674;49.722;10.892;2022-11-04T13:06:08;4.90;;;1.57;;
5303;SDS011;2674;49.722;10.892;2022-11-04T13:11:52;9.67;;;1.97;;
5303;SDS011;2674;49.722;10.892;2022-11-04T13:14:36;7.80;;;2.07;;
5303;SDS011;2674;49.722;10.892;2022-11-04T13:17:14;6.07;;;1.90;;
5303;SDS011;2674;49.722;10.892;2022-11-04T13:19:50;7.70;;;2.23;;
5303;SDS011;2674;49.722;10.892;2022-11-04T13:22:25;8.03;;;2.43;;
5303;SDS011;2674;49.722;10.892;2022-11-04T13:25:04;7.50;;;3.03;;
5303;SDS011;2674;49.722;10.892;2022-11-04T13:27:38;6.17;;;2.60;;
5303;SDS011;2674;49.722;10.892;2022-11-04T13:33:15;8.80;;;2.80;;
5303;SDS011;2674;49.722;10.892;2022-11-04T13:41:08;67.30;;;34.27;;
5303;SDS011;2674;49.722;10.892;2022-11-04T13:44:00;81.20;;;47.97;;
5303;SDS011;2674;49.722;10.892;2022-11-04T13:46:30;12.47;;;7.63;;
5303;SDS011;2674;49.722;10.892;2022-11-04T13:49:40;9.30;;;4.63;;
5303;SDS011;2674;49.722;10.892;2022-11-04T13:54:38;8.33;;;3.17;;
5303;SDS011;2674;49.722;10.892;2022-11-04T13:57:23;4.17;;;2.47;;
5303;SDS011;2674;49.722;10.892;2022-11-04T14:10:45;11.20;;;6.53;;
5303;SDS011;2674;49.722;10.892;2022-11-04T14:18:28;11.07;;;2.30;;
5303;SDS011;2674;49.722;10.892;2022-11-04T14:21:12;5.23;;;2.10;;
5303;SDS011;2674;49.722;10.892;2022-11-04T14:23:39;16.03;;;2.90;;
5303;SDS011;2674;49.722;10.892;2022-11-04T14:26:14;6.07;;;3.30;;
5303;SDS011;2674;49.722;10.892;2022-11-04T14:28:43;18.50;;;5.53;;
5303;SDS011;2674;49.722;10.892;2022-11-04T14:31:12;4.47;;;2.70;;
5303;SDS011;2674;49.722;10.892;2022-11-04T14:38:54;4.37;;;2.33;;
5303;SDS011;2674;49.722;10.892;2022-11-04T14:44:12;8.37;;;3.77;;
5303;SDS011;2674;49.722;10.892;2022-11-04T14:46:51;6.83;;;3.80;;
5303;SDS011;2674;49.722;10.892;2022-11-04T14:49:38;8.43;;;3.20;;
5303;SDS011;2674;49.722;10.892;2022-11-04T14:52:18;5.90;;;3.30;;
5303;SDS011;2674;49.722;10.892;2022-11-04T14:54:46;7.47;;;3.33;;
5303;SDS011;2674;49.722;10.892;2022-11-04T14:57:16;5.37;;;3.20;;
5303;SDS011;2674;49.722;10.892;2022-11-04T14:59:44;3.93;;;2.93;;
5303;SDS011;2674;49.722;10.892;2022-11-04T15:02:15;11.27;;;4.63;;
5303;SDS011;2674;49.722;10.892;2022-11-04T15:04:55;13.27;;;6.40;;
5303;SDS011;2674;49.722;10.892;2022-11-04T15:07:33;10.07;;;4.00;;
5303;SDS011;2674;49.722;10.892;2022-11-04T15:10:25;13.50;;;4.40;;
5303;SDS011;2674;49.722;10.892;2022-11-04T15:12:52;12.27;;;5.77;;
5303;SDS011;2674;49.722;10.892;2022-11-04T15:18:00;17.03;;;6.90;;
5303;SDS011;2674;49.722;10.892;2022-11-04T15:20:32;11.63;;;5.40;;
5303;SDS011;2674;49.722;10.892;2022-11-04T15:23:02;10.67;;;6.23;;
5303;SDS011;2674;49.722;10.892;2022-11-04T15:25:30;17.97;;;9.10;;
5303;SDS011;2674;49.722;10.892;2022-11-04T15:27:57;25.67;;;10.53;;
5303;SDS011;2674;49.722;10.892;2022-11-04T15:30:24;14.80;;;8.30;;
5303;SDS011;2674;49.722;10.892;2022-11-04T15:32:57;10.90;;;7.63;;
5303;SDS011;2674;49.722;10.892;2022-11-04T15:35:25;9.40;;;6.30;;
5303;SDS011;2674;49.722;10.892;2022-11-04T15:37:52;9.80;;;5.57;;
5303;SDS011;2674;49.722;10.892;2022-11-04T15:40:19;9.70;;;5.53;;
5303;SDS011;2674;49.722;10.892;2022-11-04T15:42:46;9.70;;;5.70;;
5303;SDS011;2674;49.722;10.892;2022-11-04T15:51:13;6.40;;;3.40;;
5303;SDS011;2674;49.722;10.892;2022-11-04T15:56:34;9.30;;;2.83;;
5303;SDS011;2674;49.722;10.892;2022-11-04T15:59:07;3.97;;;2.33;;
5303;SDS011;2674;49.722;10.892;2022-11-04T16:01:43;4.20;;;2.40;;
5303;SDS011;2674;49.722;10.892;2022-11-04T16:04:14;9.30;;;2.30;;
5303;SDS011;2674;49.722;10.892;2022-11-04T16:06:42;3.80;;;2.03;;
5303;SDS011;2674;49.722;10.892;2022-11-04T16:11:38;5.13;;;2.00;;
5303;SDS011;2674;49.722;10.892;2022-11-04T16:14:18;4.83;;;2.50;;
5303;SDS011;2674;49.722;10.892;2022-11-04T16:16:46;8.53;;;2.30;;
5303;SDS011;2674;49.722;10.892;2022-11-04T16:19:15;3.47;;;2.13;;
5303;SDS011;2674;49.722;10.892;2022-11-04T16:21:46;9.27;;;2.77;;
5303;SDS011;2674;49.722;10.892;2022-11-04T16:24:25;9.80;;;3.60;;
5303;SDS011;2674;49.722;10.892;2022-11-04T16:26:55;5.80;;;2.77;;
5303;SDS011;2674;49.722;10.892;2022-11-04T16:34:49;2.83;;;2.30;;
5303;SDS011;2674;49.722;10.892;2022-11-04T16:37:17;11.37;;;2.27;;
5303;SDS011;2674;49.722;10.892;2022-11-04T16:39:43;5.23;;;2.17;;
5303;SDS011;2674;49.722;10.892;2022-11-04T16:42:13;2.70;;;2.13;;
5303;SDS011;2674;49.722;10.892;2022-11-04T16:44:47;2.73;;;2.27;;
5303;SDS011;2674;49.722;10.892;2022-11-04T16:47:15;8.40;;;3.50;;
5303;SDS011;2674;49.722;10.892;2022-11-04T16:49:42;6.57;;;2.83;;
5303;SDS011;2674;49.722;10.892;2022-11-04T16:52:11;2.87;;;1.70;;
5303;SDS011;2674;49.722;10.892;2022-11-04T16:54:39;7.83;;;2.50;;
5303;SDS011;2674;49.722;10.892;2022-11-04T16:57:05;13.73;;;4.00;;
5303;SDS011;2674;49.722;10.892;2022-11-04T16:59:36;13.53;;;9.60;;
5303;SDS011;2674;49.722;10.892;2022-11-04T17:02:11;25.20;;;11.70;;
5303;SDS011;2674;49.722;10.892;2022-11-04T17:07:16;16.00;;;9.30;;
5303;SDS011;2674;49.722;10.892;2022-11-04T17:09:42;16.70;;;8.07;;
5303;SDS011;2674;49.722;10.892;2022-11-04T17:12:08;11.33;;;8.47;;
5303;SDS011;2674;49.722;10.892;2022-11-04T17:14:34;14.73;;;7.33;;
5303;SDS011;2674;49.722;10.892;2022-11-04T17:17:00;11.30;;;5.63;;
5303;SDS011;2674;49.722;10.892;2022-11-04T17:19:28;9.03;;;5.07;;
5303;SDS011;2674;49.722;10.892;2022-11-04T17:21:54;17.10;;;6.37;;
5303;SDS011;2674;49.722;10.892;2022-11-04T17:24:20;6.70;;;4.30;;
5303;SDS011;2674;49.722;10.892;2022-11-04T17:26:46;9.97;;;5.23;;
5303;SDS011;2674;49.722;10.892;2022-11-04T17:29:12;13.60;;;7.30;;
5303;SDS011;2674;49.722;10.892;2022-11-04T17:31:38;52.10;;;24.40;;
5303;SDS011;2674;49.722;10.892;2022-11-04T17:34:04;53.23;;;23.20;;
5303;SDS011;2674;49.722;10.892;2022-11-04T17:36:30;36.20;;;17.50;;
5303;SDS011;2674;49.722;10.892;2022-11-04T17:38:56;78.40;;;39.67;;
5303;SDS011;2674;49.722;10.892;2022-11-04T17:41:22;41.57;;;23.40;;
5303;SDS011;2674;49.722;10.892;2022-11-04T17:44:06;32.20;;;18.63;;
5303;SDS011;2674;49.722;10.892;2022-11-04T17:46:33;38.10;;;21.97;;
5303;SDS011;2674;49.722;10.892;2022-11-04T17:51:39;69.57;;;32.47;;
5303;SDS011;2674;49.722;10.892;2022-11-04T17:54:06;105.13;;;42.27;;
5303;SDS011;2674;49.722;10.892;2022-11-04T17:56:33;94.60;;;37.80;;
5303;SDS011;2674;49.722;10.892;2022-11-04T17:58:59;117.30;;;46.67;;
5303;SDS011;2674;49.722;10.892;2022-11-04T18:01:26;95.70;;;40.90;;
5303;SDS011;2674;49.722;10.892;2022-11-04T18:03:52;76.80;;;36.43;;
5303;SDS011;2674;49.722;10.892;2022-11-04T18:06:19;66.37;;;30.97;;
5303;SDS011;2674;49.722;10.892;2022-11-04T18:08:46;71.57;;;33.17;;
5303;SDS011;2674;49.722;10.892;2022-11-04T18:11:13;82.70;;;35.67;;
5303;SDS011;2674;49.722;10.892;2022-11-04T18:13:59;78.13;;;28.80;;
5303;SDS011;2674;49.722;10.892;2022-11-04T18:16:25;107.50;;;34.30;;
5303;SDS011;2674;49.722;10.892;2022-11-04T18:18:51;80.07;;;31.67;;
5303;SDS011;2674;49.722;10.892;2022-11-04T18:21:17;72.70;;;27.47;;
5303;SDS011;2674;49.722;10.892;2022-11-04T18:23:43;82.17;;;30.20;;
5303;SDS011;2674;49.722;10.892;2022-11-04T18:26:09;77.03;;;31.13;;
5303;SDS011;2674;49.722;10.892;2022-11-04T18:28:36;81.33;;;32.47;;
5303;SDS011;2674;49.722;10.892;2022-11-04T18:31:09;59.00;;;25.13;;